Time;durP1;ratioP1;P1;durP2;ratioP2;P2;SDS_P1;SDS_P2;PMS_P1;PMS_P2;Temp;Humidity;BMP_temperature;BMP_pressure;BME280_temperature;BME280_humidity;BME280_pressure;Samples;Min_cycle;Max_cycle;Signal;HPM_P1;HPM_P2
2021/04/12 00:00:34;;;;;;;1.42;0.70;;;2.80;79.30;;;;;;2085125;28;20047;-85
2021/04/12 00:01:43;;;;;;;1.50;0.80;;;2.80;79.40;;;;;;2090138;28;20024;-86
2021/04/12 00:02:48;;;;;;;2.03;0.60;;;2.80;79.50;;;;;;2082526;28;20018;-85
2021/04/12 00:03:52;;;;;;;3.70;0.60;;;2.80;79.60;;;;;;2082168;28;20038;-85
2021/04/12 00:05:10;;;;;;;2.03;0.60;;;2.80;79.70;;;;;;2082144;28;20476;-85
2021/04/12 00:06:14;;;;;;;1.17;0.63;;;2.80;79.70;;;;;;2085871;28;20031;-85
2021/04/12 00:07:35;;;;;;;1.50;0.70;;;2.80;79.80;;;;;;2087578;28;20116;-85
2021/04/12 00:08:52;;;;;;;1.15;0.60;;;2.70;80.40;;;;;;2083501;28;20021;-85
2021/04/12 00:10:07;;;;;;;2.25;0.60;;;2.70;79.90;;;;;;2086817;28;20060;-85
2021/04/12 00:11:29;;;;;;;2.10;0.60;;;2.70;80.00;;;;;;2081943;28;20432;-85
2021/04/12 00:12:59;;;;;;;1.58;0.70;;;2.70;80.00;;;;;;2080329;28;20025;-85
2021/04/12 00:14:14;;;;;;;2.38;0.80;;;2.70;80.10;;;;;;2079104;28;20025;-84
2021/04/12 00:15:55;;;;;;;0.77;0.60;;;2.70;80.10;;;;;;2089123;28;20475;-85
2021/04/12 00:17:19;;;;;;;1.95;0.88;;;2.70;80.10;;;;;;2047924;29;20063;-85
2021/04/12 00:18:38;;;;;;;2.60;0.80;;;2.60;80.10;;;;;;2076919;28;20032;-85
2021/04/12 00:19:55;;;;;;;1.88;0.80;;;2.60;80.10;;;;;;2075931;28;20037;-85
2021/04/12 00:20:59;;;;;;;1.88;0.75;;;2.60;80.20;;;;;;2083532;28;20026;-85
2021/04/12 00:22:17;;;;;;;1.08;0.65;;;2.50;80.20;;;;;;2082237;28;20116;-85
2021/04/12 00:23:30;;;;;;;1.70;0.80;;;2.60;80.30;;;;;;2084368;28;20029;-85
2021/04/12 00:24:41;;;;;;;2.30;0.90;;;2.50;80.40;;;;;;2086453;28;20037;-85
2021/04/12 00:26:00;;;;;;;2.90;0.82;;;2.50;80.40;;;;;;2085279;28;20518;-85
2021/04/12 00:27:15;;;;;;;1.80;0.80;;;2.50;80.50;;;;;;2082926;28;20029;-85
2021/04/12 00:28:39;;;;;;;1.02;0.63;;;2.50;80.60;;;;;;2082125;28;20025;-85
2021/04/12 00:29:48;;;;;;;2.72;0.80;;;2.50;80.60;;;;;;2087124;28;20025;-85
2021/04/12 00:30:56;;;;;;;1.70;0.95;;;2.40;80.60;;;;;;2087994;28;20079;-85
2021/04/12 00:32:20;;;;;;;1.30;0.65;;;2.40;80.60;;;;;;2075291;28;20064;-85
2021/04/12 00:33:52;;;;;;;1.40;0.80;;;2.40;80.60;;;;;;2070169;28;20421;-85
2021/04/12 00:35:06;;;;;;;2.03;0.80;;;2.40;80.70;;;;;;2080536;28;20033;-85
2021/04/12 00:36:19;;;;;;;2.85;0.90;;;2.40;80.80;;;;;;2091218;28;20043;-85
2021/04/12 00:37:33;;;;;;;1.48;0.70;;;2.40;80.80;;;;;;2089962;28;20511;-85
2021/04/12 00:38:37;;;;;;;1.65;0.77;;;2.40;80.90;;;;;;2082374;28;20052;-85
2021/04/12 00:39:54;;;;;;;1.48;0.90;;;2.30;80.80;;;;;;2082028;28;20029;-85
2021/04/12 00:41:34;;;;;;;1.40;0.80;;;2.30;80.90;;;;;;2075544;28;20113;-85
2021/04/12 00:42:54;;;;;;;1.77;0.80;;;2.30;80.90;;;;;;2084566;28;20172;-85
2021/04/12 00:44:27;;;;;;;1.52;0.75;;;2.30;80.90;;;;;;2079449;28;20029;-85
2021/04/12 00:45:37;;;;;;;1.88;0.80;;;2.30;80.90;;;;;;2084302;28;20806;-85
2021/04/12 00:46:49;;;;;;;1.70;0.73;;;2.30;80.90;;;;;;2089157;28;20028;-85
2021/04/12 00:48:19;;;;;;;1.50;0.68;;;2.20;80.90;;;;;;2078201;28;20061;-85
2021/04/12 00:49:56;;;;;;;1.67;0.80;;;2.20;81.00;;;;;;2081793;28;20029;-84
2021/04/12 00:51:24;;;;;;;2.33;0.80;;;2.20;81.00;;;;;;2081186;28;20030;-85
2021/04/12 00:52:49;;;;;;;1.88;0.85;;;2.20;81.00;;;;;;2083100;28;20080;-85
2021/04/12 00:54:08;;;;;;;1.98;0.98;;;2.20;81.60;;;;;;2081610;28;20033;-85
2021/04/12 00:55:56;;;;;;;1.88;0.70;;;2.20;81.10;;;;;;2083434;28;20487;-85
2021/04/12 00:57:34;;;;;;;2.28;0.95;;;2.10;81.10;;;;;;2056086;28;20022;-85
2021/04/12 00:58:53;;;;;;;2.20;0.93;;;2.10;81.00;;;;;;2086980;28;20040;-85
2021/04/12 01:00:03;;;;;;;2.13;1.00;;;2.10;81.10;;;;;;2086117;28;20491;-85
2021/04/12 01:01:20;;;;;;;2.88;0.90;;;2.10;81.10;;;;;;2081766;28;20037;-85
2021/04/12 01:02:26;;;;;;;1.63;0.85;;;2.10;81.20;;;;;;2083459;28;20057;-86
2021/04/12 01:04:08;;;;;;;1.63;1.08;;;2.10;81.20;;;;;;2083524;28;20078;-85
2021/04/12 01:05:27;;;;;;;;;;;2.10;81.30;;;;;;2083324;28;20104;-85
2021/04/12 01:06:59;;;;;;;1.88;0.90;;;2.10;81.30;;;;;;2084899;28;19909;-84
2021/04/12 01:08:18;;;;;;;1.23;0.70;;;2.10;81.20;;;;;;2096204;28;20068;-84
2021/04/12 01:10:02;;;;;;;2.28;0.95;;;2.10;81.20;;;;;;2084234;28;20492;-84
2021/04/12 01:11:23;;;;;;;1.88;1.10;;;2.00;81.20;;;;;;2073641;28;20026;-85
2021/04/12 01:13:05;;;;;;;2.15;1.02;;;2.00;81.20;;;;;;2082199;28;20033;-84
2021/04/12 01:14:17;;;;;;;2.10;0.90;;;2.00;81.90;;;;;;2086943;28;20131;-84
2021/04/12 01:15:27;;;;;;;2.65;1.02;;;2.00;81.30;;;;;;2075685;28;20030;-83
2021/04/12 01:16:48;;;;;;;2.28;1.02;;;2.00;81.30;;;;;;2083325;28;20029;-84
2021/04/12 01:18:21;;;;;;;7.30;1.65;;;2.00;81.40;;;;;;2089689;28;20095;-84
2021/04/12 01:19:43;;;;;;;2.00;0.90;;;2.00;81.40;;;;;;2085249;28;20056;-84
2021/04/12 01:20:49;;;;;;;2.88;1.20;;;2.00;81.50;;;;;;2089280;28;20047;-84
2021/04/12 01:22:08;;;;;;;2.85;1.13;;;1.90;81.50;;;;;;2086352;28;20026;-85
2021/04/12 01:23:30;;;;;;;2.90;1.08;;;1.90;81.50;;;;;;2081467;28;20029;-84
2021/04/12 01:25:05;;;;;;;1.85;1.00;;;1.90;81.70;;;;;;2081554;28;20492;-84
2021/04/12 01:26:24;;;;;;;2.70;1.23;;;1.90;81.70;;;;;;2082254;28;20025;-85
2021/04/12 01:27:47;;;;;;;2.38;0.90;;;1.90;81.70;;;;;;2081396;28;20577;-84
2021/04/12 01:29:03;;;;;;;2.72;1.10;;;1.90;81.70;;;;;;2081301;28;20039;-84
2021/04/12 01:30:39;;;;;;;1.85;1.10;;;1.90;81.70;;;;;;2086233;28;20025;-84
2021/04/12 01:31:58;;;;;;;1.98;1.10;;;1.90;81.80;;;;;;2084925;28;20029;-84
2021/04/12 01:33:26;;;;;;;2.17;1.15;;;1.90;81.80;;;;;;2078941;28;20033;-84
2021/04/12 01:34:54;;;;;;;1.77;0.90;;;1.90;81.80;;;;;;2083210;28;20056;-85
2021/04/12 01:35:58;;;;;;;1.95;0.88;;;1.90;81.80;;;;;;2090477;28;20029;-85
2021/04/12 01:37:43;;;;;;;1.85;1.00;;;1.90;81.90;;;;;;2089262;28;20021;-85
2021/04/12 01:39:08;;;;;;;2.72;1.10;;;1.90;81.90;;;;;;2049132;28;20134;-85
2021/04/12 01:40:24;;;;;;;2.03;0.98;;;1.90;82.00;;;;;;2049575;28;20030;-85
2021/04/12 01:41:30;;;;;;;2.05;1.10;;;1.90;81.90;;;;;;2080943;28;20029;-85
2021/04/12 01:42:36;;;;;;;2.45;1.00;;;1.90;81.90;;;;;;2082887;28;20021;-85
2021/04/12 01:44:11;;;;;;;2.60;1.20;;;1.90;82.00;;;;;;2082714;28;20087;-85
2021/04/12 01:45:45;;;;;;;3.78;1.40;;;1.90;82.10;;;;;;2086240;28;20138;-85
2021/04/12 01:46:51;;;;;;;2.15;1.00;;;1.80;82.10;;;;;;2087418;28;20037;-85
2021/04/12 01:48:16;;;;;;;2.58;1.33;;;1.90;82.10;;;;;;2081360;28;20033;-85
2021/04/12 01:49:44;;;;;;;2.70;1.00;;;1.90;82.20;;;;;;2080814;28;20037;-85
2021/04/12 01:50:53;;;;;;;2.45;1.13;;;1.90;82.30;;;;;;2077624;28;20025;-84
2021/04/12 01:52:14;;;;;;;1.83;1.05;;;1.90;82.20;;;;;;2074235;28;20076;-84
2021/04/12 01:53:24;;;;;;;1.70;1.02;;;1.80;82.50;;;;;;2079856;28;20038;-84
2021/04/12 01:54:43;;;;;;;2.22;1.08;;;1.90;82.30;;;;;;2089173;28;20040;-85
2021/04/12 01:55:58;;;;;;;2.38;1.30;;;1.80;82.40;;;;;;2082464;28;20033;-85
2021/04/12 01:57:14;;;;;;;2.45;1.17;;;1.90;82.50;;;;;;2086661;28;20115;-84
2021/04/12 01:58:29;;;;;;;3.38;1.10;;;1.90;82.50;;;;;;2086658;28;20069;-84
2021/04/12 02:00:03;;;;;;;2.00;1.10;;;1.80;82.40;;;;;;2089319;28;20533;-84
2021/04/12 02:01:25;;;;;;;2.40;0.93;;;1.90;82.50;;;;;;2084342;28;20024;-85
2021/04/12 02:02:38;;;;;;;2.53;1.00;;;1.90;82.50;;;;;;2084689;28;20126;-84
2021/04/12 02:03:56;;;;;;;2.45;1.13;;;1.90;82.50;;;;;;2081266;28;20529;-85
2021/04/12 02:04:56;;;;;;;2.80;1.10;;;1.80;82.50;;;;;;2080890;28;20032;-86
2021/04/12 02:06:39;;;;;;;2.67;1.13;;;1.90;82.50;;;;;;2083719;28;20517;-86
2021/04/12 02:07:59;;;;;;;1.70;1.10;;;1.90;82.60;;;;;;2073399;28;20041;-85
2021/04/12 02:09:36;;;;;;;3.55;1.15;;;1.80;82.60;;;;;;2077459;28;20026;-85
2021/04/12 02:10:55;;;;;;;1.85;1.00;;;1.80;82.70;;;;;;2089286;28;20028;-85
2021/04/12 02:12:02;;;;;;;2.47;1.20;;;1.80;82.60;;;;;;2092497;28;20029;-84
2021/04/12 02:13:20;;;;;;;2.40;1.10;;;1.80;82.60;;;;;;2094487;28;20020;-84
2021/04/12 02:14:46;;;;;;;2.13;1.25;;;1.80;82.70;;;;;;2085977;28;20041;-84
2021/04/12 02:15:54;;;;;;;2.58;1.63;;;1.80;82.80;;;;;;2084349;28;20028;-84
2021/04/12 02:17:25;;;;;;;2.30;1.17;;;1.80;82.80;;;;;;2091516;28;20036;-85
2021/04/12 02:18:34;;;;;;;2.90;1.25;;;1.80;82.80;;;;;;2087593;28;20041;-85
2021/04/12 02:19:59;;;;;;;2.47;1.23;;;1.80;82.90;;;;;;2080905;28;20032;-85
2021/04/12 02:21:23;;;;;;;2.50;1.02;;;1.80;82.90;;;;;;2084109;28;20029;-85
2021/04/12 02:22:39;;;;;;;3.05;1.20;;;1.80;83.00;;;;;;2083188;28;20040;-85
2021/04/12 02:23:58;;;;;;;3.65;1.25;;;1.80;83.00;;;;;;2075258;28;20045;-85
2021/04/12 02:25:17;;;;;;;3.80;1.35;;;1.70;82.90;;;;;;2079558;28;20026;-85
2021/04/12 02:26:33;;;;;;;4.22;1.20;;;1.70;83.00;;;;;;2079971;28;20029;-84
2021/04/12 02:28:05;;;;;;;2.30;1.30;;;1.70;83.10;;;;;;2082087;28;20140;-85
2021/04/12 02:29:11;;;;;;;2.70;1.30;;;1.70;83.10;;;;;;2083559;28;20035;-85
2021/04/12 02:30:22;;;;;;;3.20;1.35;;;1.70;83.10;;;;;;2080572;28;20459;-85
2021/04/12 02:31:38;;;;;;;2.17;1.10;;;1.70;83.10;;;;;;2077198;28;20440;-86
2021/04/12 02:33:02;;;;;;;1.88;1.10;;;1.70;83.10;;;;;;2084143;28;20029;-85
2021/04/12 02:34:21;;;;;;;2.20;1.20;;;1.70;83.10;;;;;;2085372;28;20037;-85
2021/04/12 02:35:35;;;;;;;3.22;1.20;;;1.70;83.10;;;;;;2087670;28;20037;-85
2021/04/12 02:36:59;;;;;;;3.50;1.35;;;1.70;83.20;;;;;;2082600;28;20125;-85
2021/04/12 02:38:19;;;;;;;2.38;1.23;;;1.70;83.10;;;;;;2060528;28;20100;-86
2021/04/12 02:39:23;;;;;;;2.72;1.38;;;1.70;83.20;;;;;;2077099;28;20153;-85
2021/04/12 02:41:01;;;;;;;2.55;1.40;;;1.70;83.20;;;;;;2080422;28;20033;-85
2021/04/12 02:42:26;;;;;;;2.08;1.30;;;1.70;83.30;;;;;;2048908;28;20046;-85
2021/04/12 02:43:55;;;;;;;3.10;1.60;;;1.70;83.30;;;;;;2076956;28;20018;-85
2021/04/12 02:45:27;;;;;;;3.15;1.30;;;1.70;83.30;;;;;;2061735;28;20035;-85
2021/04/12 02:46:46;;;;;;;3.03;1.45;;;1.70;83.30;;;;;;2080975;28;20048;-85
2021/04/12 02:48:02;;;;;;;2.25;1.40;;;1.70;83.30;;;;;;2093156;28;20056;-85
2021/04/12 02:49:08;;;;;;;2.22;1.25;;;1.70;83.30;;;;;;2082408;28;20042;-85
2021/04/12 02:50:33;;;;;;;2.88;1.38;;;1.60;83.30;;;;;;2078226;28;20056;-85
2021/04/12 02:51:52;;;;;;;3.08;1.48;;;1.60;83.30;;;;;;2082421;28;20064;-85
2021/04/12 02:53:17;;;;;;;2.65;1.50;;;1.60;83.40;;;;;;2084299;28;20033;-85
2021/04/12 02:54:47;;;;;;;3.28;1.23;;;1.60;83.40;;;;;;2081683;28;20041;-85
2021/04/12 02:55:47;;;;;;;3.60;1.33;;;1.60;83.50;;;;;;2085791;28;20025;-86
2021/04/12 02:57:06;;;;;;;2.90;1.40;;;1.60;83.50;;;;;;2082064;28;20410;-86
2021/04/12 02:58:31;;;;;;;4.03;1.55;;;1.60;83.50;;;;;;2084668;28;20569;-86
2021/04/12 02:59:56;;;;;;;3.47;1.27;;;1.50;83.50;;;;;;2090115;28;20032;-86
2021/04/12 03:01:02;;;;;;;2.20;1.20;;;1.50;83.50;;;;;;2077510;28;20083;-86
2021/04/12 03:02:32;;;;;;;2.15;1.30;;;1.50;83.60;;;;;;2083259;28;20026;-86
2021/04/12 03:04:03;;;;;;;3.63;1.60;;;1.50;83.60;;;;;;2090025;28;20414;-86
2021/04/12 03:05:14;;;;;;;2.65;1.30;;;1.50;83.70;;;;;;2086025;28;20395;-86
2021/04/12 03:06:39;;;;;;;2.50;1.35;;;1.50;83.60;;;;;;2082257;28;20029;-85
2021/04/12 03:07:45;;;;;;;3.65;1.65;;;1.50;83.70;;;;;;2077383;28;20036;-85
2021/04/12 03:08:51;;;;;;;2.92;1.52;;;1.50;83.70;;;;;;2080796;28;20069;-85
2021/04/12 03:10:07;;;;;;;3.33;1.50;;;1.50;83.80;;;;;;2081868;28;20077;-86
2021/04/12 03:11:27;;;;;;;3.15;1.75;;;1.50;83.90;;;;;;2076451;28;20060;-85
2021/04/12 03:12:58;;;;;;;3.22;1.52;;;1.50;83.90;;;;;;2076514;28;20096;-85
2021/04/12 03:14:02;;;;;;;2.83;1.55;;;1.50;83.90;;;;;;2084722;28;20040;-86
2021/04/12 03:15:21;;;;;;;2.30;1.38;;;1.50;83.90;;;;;;2081398;28;20602;-85
2021/04/12 03:16:38;;;;;;;2.58;1.40;;;1.50;83.90;;;;;;2083066;28;20025;-85
2021/04/12 03:18:16;;;;;;;3.20;1.50;;;1.50;83.90;;;;;;2083973;28;20099;-85
2021/04/12 03:19:43;;;;;;;3.70;1.85;;;1.60;83.90;;;;;;2079081;28;20033;-85
2021/04/12 03:21:02;;;;;;;2.95;1.50;;;1.60;83.90;;;;;;2085005;28;20025;-85
2021/04/12 03:22:38;;;;;;;2.85;1.58;;;1.60;83.90;;;;;;2080665;28;20503;-85
2021/04/12 03:23:50;;;;;;;2.80;1.35;;;1.60;83.80;;;;;;2081306;28;20063;-85
2021/04/12 03:25:27;;;;;;;2.72;1.48;;;1.60;83.70;;;;;;2089297;28;20025;-86
2021/04/12 03:27:01;;;;;;;2.30;1.50;;;1.60;83.70;;;;;;2083395;28;20044;-86
2021/04/12 03:28:10;;;;;;;3.28;1.70;;;1.60;83.70;;;;;;2090911;28;20021;-86
2021/04/12 03:29:32;;;;;;;2.55;1.58;;;1.60;83.80;;;;;;2084739;28;20117;-86
2021/04/12 03:31:04;;;;;;;2.90;1.48;;;1.60;83.80;;;;;;2083273;28;20517;-85
2021/04/12 03:32:16;;;;;;;3.58;1.45;;;1.60;83.80;;;;;;2061766;28;20428;-85
2021/04/12 03:33:31;;;;;;;2.50;1.50;;;1.60;83.80;;;;;;2082471;28;20026;-86
2021/04/12 03:35:01;;;;;;;2.20;1.27;;;1.60;83.90;;;;;;2082081;28;20136;-85
2021/04/12 03:36:17;;;;;;;2.53;1.38;;;1.60;83.90;;;;;;2056655;28;20066;-85
2021/04/12 03:37:42;;;;;;;2.95;1.70;;;1.60;84.00;;;;;;2090434;28;20025;-85
2021/04/12 03:39:10;;;;;;;3.63;1.70;;;1.60;84.00;;;;;;2089893;28;20037;-86
2021/04/12 03:40:36;;;;;;;3.00;1.52;;;1.60;84.00;;;;;;2084918;28;20086;-85
2021/04/12 03:42:01;;;;;;;3.28;1.70;;;1.60;84.10;;;;;;2085027;28;20070;-84
2021/04/12 03:43:44;;;;;;;2.58;1.42;;;1.60;84.10;;;;;;2085112;28;20083;-85
2021/04/12 03:44:59;;;;;;;3.17;1.30;;;1.60;84.00;;;;;;2079689;28;20164;-86
2021/04/12 03:46:22;;;;;;;2.55;1.33;;;1.60;84.00;;;;;;2084966;28;20033;-86
2021/04/12 03:47:34;;;;;;;4.15;1.50;;;1.60;83.90;;;;;;2088645;28;20072;-86
2021/04/12 03:49:03;;;;;;;3.10;1.60;;;1.60;84.00;;;;;;2087737;28;20017;-86
2021/04/12 03:50:18;;;;;;;3.45;1.60;;;1.60;84.00;;;;;;2081505;28;20029;-85
2021/04/12 03:51:58;;;;;;;3.20;1.67;;;1.60;84.00;;;;;;2083072;28;20561;-85
2021/04/12 03:53:19;;;;;;;2.83;1.45;;;1.60;84.10;;;;;;2089624;28;20098;-85
2021/04/12 03:54:49;;;;;;;2.55;1.63;;;1.60;84.00;;;;;;2089263;28;20021;-84
2021/04/12 03:55:58;;;;;;;2.47;1.40;;;1.60;84.00;;;;;;2090539;28;20057;-85
2021/04/12 03:57:26;;;;;;;2.88;1.38;;;1.60;84.00;;;;;;2089943;28;20033;-85
2021/04/12 03:58:50;;;;;;;3.78;1.60;;;1.70;84.10;;;;;;2084311;28;20029;-85
2021/04/12 03:59:51;;;;;;;2.90;1.40;;;1.70;84.10;;;;;;2084929;28;20469;-85
2021/04/12 04:01:16;;;;;;;2.67;1.60;;;1.60;84.10;;;;;;2086861;28;20026;-85
2021/04/12 04:02:50;;;;;;;4.13;2.15;;;1.70;84.20;;;;;;2083376;28;20032;-85
2021/04/12 04:04:05;;;;;;;2.70;1.30;;;1.70;84.20;;;;;;2081288;28;20040;-85
2021/04/12 04:05:30;;;;;;;4.05;1.45;;;1.70;84.10;;;;;;2083197;28;20173;-85
2021/04/12 04:07:06;;;;;;;2.22;1.33;;;1.70;84.10;;;;;;2084195;28;20025;-85
2021/04/12 04:08:32;;;;;;;3.28;1.40;;;1.60;84.10;;;;;;2057548;28;20134;-85
2021/04/12 04:09:54;;;;;;;2.10;1.40;;;1.70;84.20;;;;;;2090325;28;20041;-85
2021/04/12 04:10:57;;;;;;;2.35;1.42;;;1.60;84.20;;;;;;2086587;28;20044;-85
2021/04/12 04:12:19;;;;;;;2.10;1.35;;;1.60;84.30;;;;;;2089799;28;20055;-85
2021/04/12 04:13:54;;;;;;;2.47;1.48;;;1.60;84.30;;;;;;2089650;28;20127;-85
2021/04/12 04:15:14;;;;;;;2.63;1.50;;;1.60;84.30;;;;;;2081337;28;20033;-85
2021/04/12 04:16:50;;;;;;;2.72;1.50;;;1.60;84.30;;;;;;2078366;28;20029;-84
2021/04/12 04:18:12;;;;;;;3.13;1.35;;;1.60;84.40;;;;;;2079779;28;20025;-85
2021/04/12 04:19:50;;;;;;;3.72;1.70;;;1.60;84.40;;;;;;2081058;28;20034;-84
2021/04/12 04:21:09;;;;;;;2.58;1.50;;;1.60;84.40;;;;;;2083858;28;20037;-85
2021/04/12 04:22:22;;;;;;;2.53;1.45;;;1.60;84.40;;;;;;2090526;28;20021;-85
2021/04/12 04:23:53;;;;;;;2.55;1.45;;;1.60;84.40;;;;;;2083398;28;20030;-85
2021/04/12 04:25:35;;;;;;;3.13;1.40;;;1.60;84.40;;;;;;2078546;28;20032;-84
2021/04/12 04:26:46;;;;;;;3.15;1.38;;;1.60;84.40;;;;;;2085051;28;20111;-84
2021/04/12 04:28:08;;;;;;;2.35;1.48;;;1.60;84.40;;;;;;2080072;28;20395;-85
2021/04/12 04:29:15;;;;;;;2.13;1.38;;;1.60;84.40;;;;;;2084829;28;20025;-85
2021/04/12 04:30:21;;;;;;;2.40;1.30;;;1.60;84.40;;;;;;2089870;28;20514;-85
2021/04/12 04:31:31;;;;;;;2.90;1.30;;;1.60;84.40;;;;;;2081378;28;20531;-85
2021/04/12 04:33:02;;;;;;;2.30;1.30;;;1.60;84.50;;;;;;2074908;28;20022;-85
2021/04/12 04:34:23;;;;;;;2.20;1.30;;;1.60;84.70;;;;;;2082593;28;20017;-85
2021/04/12 04:36:03;;;;;;;2.78;1.48;;;1.60;84.60;;;;;;2081607;28;20031;-85
2021/04/12 04:37:34;;;;;;;2.53;1.10;;;1.60;84.70;;;;;;2084897;28;20475;-85
2021/04/12 04:39:39;;;;;;;2.35;1.50;;;1.60;84.60;;;;;;2076949;28;20041;-85
2021/04/12 04:40:51;;;;;;;2.00;1.30;;;1.60;84.60;;;;;;2052104;28;20627;-85
2021/04/12 04:42:13;;;;;;;2.80;1.42;;;1.60;84.60;;;;;;2083019;28;20072;-85
2021/04/12 04:43:32;;;;;;;2.50;1.58;;;1.60;84.60;;;;;;2081779;28;20393;-85
2021/04/12 04:45:02;;;;;;;3.17;1.70;;;1.60;84.60;;;;;;2079984;28;20492;-84
2021/04/12 04:46:21;;;;;;;2.17;1.40;;;1.60;85.20;;;;;;2068476;28;20041;-85
2021/04/12 04:47:58;;;;;;;2.88;1.40;;;1.60;84.70;;;;;;2064636;28;20030;-85
2021/04/12 04:49:24;;;;;;;2.40;1.30;;;1.60;84.70;;;;;;2078165;28;20080;-85
2021/04/12 04:50:43;;;;;;;3.33;1.67;;;1.60;84.70;;;;;;2083715;28;20025;-85
2021/04/12 04:52:02;;;;;;;2.70;1.48;;;1.60;84.70;;;;;;2090984;28;20048;-85
2021/04/12 04:53:17;;;;;;;3.30;1.73;;;1.60;84.70;;;;;;2082982;28;20029;-85
2021/04/12 04:54:52;;;;;;;3.38;1.73;;;1.60;84.80;;;;;;2086280;28;20029;-85
2021/04/12 04:56:02;;;;;;;4.05;1.70;;;1.60;84.80;;;;;;2061063;28;20041;-85
2021/04/12 04:57:19;;;;;;;2.30;1.50;;;1.60;84.80;;;;;;2082543;28;20036;-85
2021/04/12 04:58:40;;;;;;;4.03;1.70;;;1.60;84.90;;;;;;2079127;28;20025;-85
2021/04/12 05:00:17;;;;;;;4.50;1.67;;;1.60;84.90;;;;;;2078511;28;20022;-85
2021/04/12 05:01:46;;;;;;;3.25;1.50;;;1.60;84.90;;;;;;2082996;28;20033;-85
2021/04/12 05:03:13;;;;;;;3.88;1.48;;;1.60;84.90;;;;;;2082220;28;20029;-85
2021/04/12 05:04:28;;;;;;;3.17;1.70;;;1.60;84.90;;;;;;2082484;28;20117;-85
2021/04/12 05:05:35;;;;;;;3.47;1.67;;;1.60;84.90;;;;;;2077171;28;20037;-85
2021/04/12 05:07:15;;;;;;;2.80;1.70;;;1.60;84.90;;;;;;2089010;28;20035;-85
2021/04/12 05:08:36;;;;;;;2.65;1.40;;;1.60;84.90;;;;;;2086914;28;20458;-85
2021/04/12 05:10:02;;;;;;;3.00;1.70;;;1.60;85.00;;;;;;2087157;28;20044;-85
2021/04/12 05:11:41;;;;;;;3.60;1.55;;;1.60;84.90;;;;;;2082016;28;20057;-85
2021/04/12 05:13:11;;;;;;;3.65;1.85;;;1.70;84.90;;;;;;2078134;28;20033;-85
2021/04/12 05:14:39;;;;;;;2.63;1.52;;;1.70;84.90;;;;;;2083100;28;20045;-85
2021/04/12 05:16:33;;;;;;;2.78;1.55;;;1.70;84.80;;;;;;2078271;28;20041;-85
2021/04/12 05:18:01;;;;;;;2.88;1.60;;;1.80;84.80;;;;;;2064998;28;20086;-85
2021/04/12 05:19:18;;;;;;;2.45;1.45;;;1.80;84.70;;;;;;2059198;28;20042;-84
2021/04/12 05:20:55;;;;;;;2.40;1.35;;;1.90;84.70;;;;;;2085101;28;20108;-85
2021/04/12 05:22:14;;;;;;;2.83;1.40;;;1.90;84.70;;;;;;2083453;28;20043;-85
2021/04/12 05:23:52;;;;;;;2.40;1.25;;;1.90;84.60;;;;;;2083694;28;20025;-85
2021/04/12 05:25:02;;;;;;;2.50;1.55;;;2.00;84.60;;;;;;2085327;28;20025;-84
2021/04/12 05:26:57;;;;;;;1.65;1.10;;;2.00;84.60;;;;;;2083276;28;20040;-85
2021/04/12 05:28:28;;;;;;;2.65;1.60;;;2.00;84.50;;;;;;2062093;28;20092;-85
2021/04/12 05:29:31;;;;;;;;;;;2.10;84.50;;;;;;2061123;28;20042;-85
2021/04/12 05:30:55;;;;;;;1.95;1.50;;;2.00;84.30;;;;;;2089973;28;19971;-86
2021/04/12 05:32:08;;;;;;;2.92;1.40;;;2.10;84.80;;;;;;2091071;28;20041;-85
2021/04/12 05:33:38;;;;;;;3.13;1.20;;;2.10;84.30;;;;;;2084336;28;20026;-85
2021/04/12 05:35:00;;;;;;;2.83;1.58;;;2.10;84.40;;;;;;2083596;28;20036;-84
2021/04/12 05:36:15;;;;;;;3.85;1.65;;;2.10;84.50;;;;;;2091481;28;20035;-85
2021/04/12 05:37:27;;;;;;;2.72;1.50;;;2.10;84.50;;;;;;2086362;28;20101;-84
2021/04/12 05:38:49;;;;;;;2.92;1.67;;;2.10;84.50;;;;;;2092648;28;20018;-85
2021/04/12 05:40:17;;;;;;;3.08;1.60;;;2.10;84.60;;;;;;2092605;28;20049;-84
2021/04/12 05:41:47;;;;;;;3.13;1.50;;;2.20;84.60;;;;;;2087130;28;20005;-86
2021/04/12 05:43:12;;;;;;;3.42;1.60;;;2.20;84.60;;;;;;2088633;28;20031;-84
2021/04/12 05:44:50;;;;;;;3.63;1.65;;;2.20;84.60;;;;;;2078861;28;20034;-84
2021/04/12 05:46:05;;;;;;;2.85;1.30;;;2.20;84.50;;;;;;2087173;28;20028;-85
2021/04/12 05:47:16;;;;;;;2.88;1.60;;;2.30;84.50;;;;;;2086046;28;20037;-84
2021/04/12 05:48:38;;;;;;;3.60;1.60;;;2.30;84.40;;;;;;2089006;28;20108;-85
2021/04/12 05:49:48;;;;;;;3.40;1.85;;;2.30;84.40;;;;;;2076310;28;20036;-85
2021/04/12 05:50:57;;;;;;;2.83;1.55;;;2.40;84.40;;;;;;2080610;28;20446;-84
2021/04/12 05:52:07;;;;;;;2.55;1.58;;;2.40;84.30;;;;;;2080911;28;20120;-85
2021/04/12 05:53:20;;;;;;;2.10;1.45;;;2.40;84.30;;;;;;2086913;28;20021;-84
2021/04/12 05:54:40;;;;;;;2.90;1.60;;;2.50;84.20;;;;;;2083902;28;20029;-84
2021/04/12 05:56:26;;;;;;;2.78;1.40;;;2.50;84.10;;;;;;2083447;28;20488;-84
2021/04/12 05:57:32;;;;;;;2.60;1.52;;;2.60;84.00;;;;;;2062091;28;20038;-85
2021/04/12 05:58:39;;;;;;;2.72;1.67;;;2.60;83.80;;;;;;2068025;28;20048;-86
2021/04/12 06:00:05;;;;;;;2.58;1.60;;;2.70;83.80;;;;;;2074998;28;20041;-85
2021/04/12 06:01:34;;;;;;;2.85;1.75;;;2.70;83.70;;;;;;2086810;28;20028;-85
2021/04/12 06:03:06;;;;;;;2.80;1.58;;;2.70;83.60;;;;;;2084110;28;20028;-84
2021/04/12 06:04:31;;;;;;;2.78;1.50;;;2.80;83.50;;;;;;2089975;28;20052;-84
2021/04/12 06:06:00;;;;;;;2.92;1.58;;;2.80;83.40;;;;;;2082427;28;20029;-85
2021/04/12 06:07:34;;;;;;;3.80;1.50;;;2.90;83.30;;;;;;2076896;28;20037;-84
2021/04/12 06:09:10;;;;;;;1.90;1.17;;;2.90;83.20;;;;;;2081507;28;20029;-84
2021/04/12 06:10:32;;;;;;;2.70;1.50;;;2.90;83.10;;;;;;2055487;28;20030;-84
2021/04/12 06:11:35;;;;;;;2.03;1.40;;;3.00;83.10;;;;;;2061945;28;20056;-84
2021/04/12 06:12:58;;;;;;;3.15;1.70;;;3.00;83.00;;;;;;2070469;28;20030;-83
2021/04/12 06:14:18;;;;;;;1.90;1.20;;;3.00;83.00;;;;;;2085643;28;20033;-84
2021/04/12 06:15:25;;;;;;;2.17;1.40;;;3.10;83.00;;;;;;2079730;28;20493;-83
2021/04/12 06:16:34;;;;;;;2.15;1.33;;;3.10;82.90;;;;;;2084837;28;20032;-83
2021/04/12 06:17:47;;;;;;;2.63;1.30;;;3.10;82.80;;;;;;2095315;28;20119;-83
2021/04/12 06:19:32;;;;;;;3.65;1.60;;;3.20;82.90;;;;;;2088733;28;20041;-84
2021/04/12 06:20:48;;;;;;;1.98;1.38;;;3.20;82.80;;;;;;2081664;28;20032;-84
2021/04/12 06:22:30;;;;;;;2.13;1.33;;;3.30;82.70;;;;;;2081013;28;20415;-84
2021/04/12 06:23:55;;;;;;;1.88;1.23;;;3.30;82.60;;;;;;2088821;28;20021;-84
2021/04/12 06:25:23;;;;;;;1.40;1.10;;;3.30;82.50;;;;;;2083231;28;20071;-84
2021/04/12 06:26:44;;;;;;;1.85;1.20;;;3.40;82.50;;;;;;2086019;28;20445;-84
2021/04/12 06:28:12;;;;;;;1.95;1.20;;;3.40;82.50;;;;;;2081287;28;20021;-83
2021/04/12 06:29:25;;;;;;;2.10;1.10;;;3.40;82.40;;;;;;2082361;28;20034;-84
2021/04/12 06:30:34;;;;;;;1.80;1.10;;;3.50;82.40;;;;;;2087295;28;20032;-84
2021/04/12 06:31:57;;;;;;;1.92;1.02;;;3.50;82.40;;;;;;2087739;28;20025;-84
2021/04/12 06:33:04;;;;;;;1.30;0.93;;;3.50;82.30;;;;;;2081766;28;20037;-84
2021/04/12 06:34:13;;;;;;;1.95;0.90;;;3.60;82.30;;;;;;2081624;28;20029;-84
2021/04/12 06:35:59;;;;;;;1.70;1.13;;;3.60;82.40;;;;;;2085380;28;20048;-84
2021/04/12 06:37:31;;;;;;;1.92;0.98;;;3.60;82.30;;;;;;2086413;28;20032;-84
2021/04/12 06:38:45;;;;;;;1.77;1.20;;;3.70;82.30;;;;;;2082514;28;20504;-84
2021/04/12 06:40:14;;;;;;;1.67;1.00;;;3.70;82.20;;;;;;2086836;28;20064;-84
2021/04/12 06:41:54;;;;;;;4.18;1.00;;;3.80;82.20;;;;;;2088185;28;20025;-84
2021/04/12 06:43:46;;;;;;;1.42;0.82;;;3.80;82.10;;;;;;2084067;28;20032;-84
2021/04/12 06:45:05;;;;;;;1.92;0.93;;;3.80;82.10;;;;;;2077967;28;20105;-84
2021/04/12 06:46:15;;;;;;;2.00;1.00;;;3.80;82.10;;;;;;2081559;28;20060;-84
2021/04/12 06:47:53;;;;;;;1.67;1.00;;;3.80;82.10;;;;;;2081437;28;20052;-84
2021/04/12 06:49:12;;;;;;;3.15;1.20;;;3.80;82.20;;;;;;2081317;28;20041;-84
2021/04/12 06:50:54;;;;;;;1.77;1.02;;;3.80;82.30;;;;;;2082054;28;20028;-84
2021/04/12 06:52:30;;;;;;;1.55;1.02;;;3.70;82.40;;;;;;2081285;28;20026;-84
2021/04/12 06:53:52;;;;;;;1.83;0.98;;;3.70;82.30;;;;;;2086797;28;20029;-84
2021/04/12 06:55:05;;;;;;;1.80;0.95;;;3.70;82.40;;;;;;2081806;28;20110;-84
2021/04/12 06:56:40;;;;;;;2.00;1.13;;;3.80;82.50;;;;;;2081680;28;20099;-84
2021/04/12 06:58:35;;;;;;;1.95;1.08;;;3.80;82.50;;;;;;2089747;28;20013;-84
2021/04/12 07:00:30;;;;;;;1.92;0.88;;;3.80;82.50;;;;;;2039102;29;20062;-84
2021/04/12 07:01:50;;;;;;;1.90;0.93;;;3.80;82.40;;;;;;2063299;28;20416;-84
2021/04/12 07:03:09;;;;;;;2.03;0.90;;;3.80;82.30;;;;;;2073797;28;20443;-84
2021/04/12 07:04:28;;;;;;;2.78;1.00;;;3.90;82.30;;;;;;2076077;28;20111;-84
2021/04/12 07:05:50;;;;;;;1.98;0.80;;;3.90;82.40;;;;;;2077756;28;20028;-84
2021/04/12 07:07:19;;;;;;;1.83;0.90;;;3.90;82.30;;;;;;2074394;28;20034;-84
2021/04/12 07:08:31;;;;;;;1.77;0.88;;;3.90;82.30;;;;;;2075338;28;20072;-85
2021/04/12 07:09:54;;;;;;;2.20;1.10;;;3.90;82.30;;;;;;2080377;28;20045;-84
2021/04/12 07:11:05;;;;;;;1.58;0.73;;;4.00;82.30;;;;;;2079480;28;20056;-84
2021/04/12 07:12:42;;;;;;;1.40;0.90;;;4.00;82.30;;;;;;2077709;28;20032;-84
2021/04/12 07:14:20;;;;;;;1.65;0.65;;;4.10;82.30;;;;;;2074773;28;20092;-84